Pagrindinis puslapis
METAR-TAF:

METAR-TAF

Oro uostai :

Džakarta, Java, Indonezija

platuma: 06-07S, ilguma: 106-39E, Aukštis: 8 m

Dabartinis oras

Ataskaita buvo paskelbta 23 minutes, ne 23:00 UTC
Vėjas 4 kt iš Vakarų
Temperatūra 25°C
Drėgmė 94%
Slėgis 1010 hPa
Matomumas: 4500 m
Mažai debesys ne aukštis 2000 ft
rūkana

METAR: WIII 302300Z 27004KT 4500 BR FEW020 25/24 Q1010 NOSIG

Laikas: 06:23 (23:23 UTC)

Prognozė

Ataskaita buvo paskelbta 6 valandos ir 23 minutes, ne 17:00 UTC
Prognozė galioja nuo 30 metu 18 UTC su 31 metu 24 UTC
Vėjas 3 kt nuo kintamojo kryptimis
Matomumas: 4000 m
Išsisklaidę debesys ne aukštis 2000 ft
migla
Tapsmas
nuo 31 metu 01 UTC su 31 metu 03 UTC
Vėjas 10 kt iš Šiaurės
Matomumas: 9000 m

TAF: WIII 301700Z 3018/3124 VRB03KT 4000 HZ SCT020 BECMG 3101/3103 36010KT 9000 NSW

Orai ataskaitas ir orų prognozės (METAR, TAF).

turimą stotys yra geltonos ir raudonos taškus žemėlapyje.

Perkelti pele per norėdami pamatyti stoties vardą.

Tada spustelėkite, norėdami matyti oro stebėjimo ir prognozės.

Norėdami pakeisti žemėlapį: spustelėkite ant žalios mygtukų su juodo kryžiaus žemyn,; žalią mygtuką su brūkšneliu, jei norite nutolinti; arba žalių rodyklių gretimoms žemėlapius.


METAR-TAF: